Smiths Bend, Texas
Current Conditions -  °F | °C
As of 3:51 AM on Sunday 21 Dec 2014 (Local Time) from KACT Reporting Station
Haze Haze  
Wind Chill: 43°   Ceiling: 1700
Heat Index: 47°   Visibility: 5mi
Dew Point: 45°   Wind: 8mph
Humidity: 93%   Direction: 120°ESE
Pressure: 30.13"   Gusts: NA
Location:  31.7854°N, 97.5786°W
Report Text: KACT 210951Z 12007KT 5SM BR OVC017 08/07 A3013 RMK AO2 SLP202 T00830072
Loading
Personal Weather Stations






























Interactive Weather Map New forecast layout! Learn more

10-Day Weather Forecast

Advertisements
Track Severe Weather on mobile